Fog or no fog?

It will be interesting to see just how much the SC sheet that’s feeding in from the northwest will interfere with the formation of the widespread fog that’s anticipated for later this evening and overnight. NWP models can be notoriously unpredictable at forecasting movement and amounts of low cloud. The forecaster at Coningsby has no doubt that they will fog out after 22 UTC.

EGXC 261331Z 2615/2709 29003KT 9999 BKN045 BECMG 2615/2617 6000 HZ BECMG 2617/2619 3000 BR PROB40 2619/2622 0300 FG VV/// BECMG 2622/2701 0200 FZFG OVC000

Scroll to Top